CEQ weather

Cannes-Mandelieu Airport
Cannes/Mandelieu, Provence-Alpes-Côte-d'Azur, France

Public forecast

Using degrees Celsius for public forecast. Weather courtesy of forecast.io.

Current aviation weather report (METAR) for Cannes-Mandelieu Airport

Retrieved 2019/12/10 10:30 UTC (14 minutes ago):

LFMD 101030Z AUTO VRB03KT 9000 NSC 14/02 Q1017 NOSIG

Aviation forecast (TAF) for Cannes-Mandelieu Airport

Retrieved 2019/12/10 09:00 UTC (2 hours ago):

TAF LFMD 100800Z 1009/1109 VRB02KT CAVOK TEMPO 1011/1018 28010KT TAF LFTH 100800Z 1009/1109 36020G30KT CAVOK BECMG 1015/1016 01005KT